Terminal Aerodrome Forecast
Issued by NWS

Home | Current Version | Previous Version | Text Only | Print | Product List | Glossary On
Versions: 1 2 3 4 5 6 7 8 9 10 11 12 13 14 15 16 17 18 19 20 21 22 23 24
000
FTUS43 KTOP 230500
TAFMHK
TAF
KMHK 230520Z 2306/2406 20008KT 6SM -SHRA BR SCT024 OVC070
     FM230700 21005KT 6SM BR OVC024
     FM231600 21006KT P6SM BKN025
     FM232000 20007KT P6SM SCT030=

USA.gov is the U.S. government's official web portal to all federal, state and local government web resources and services.